Lachine, Michigan
Current Conditions -  °F | °C
As of 4:44 AM on Thursday 23 Oct 2014 (Local Time) from KAPN Reporting Station
Scattered Clouds Scattered Clouds  
Wind Chill: 26°   Ceiling: Unl
Heat Index: 26°   Visibility: 10mi
Dew Point: 23°   Wind: 0mph
Humidity: 88%   Direction: NA
Pressure: 30.26"   Gusts: NA
Location:  45.08°N, 83.72°W
Report Text: KAPN 230844Z AUTO 00000KT 10SM SCT001 M03/M05 A3026 RMK AO2 T10331050
Loading
Personal Weather Stations






























Interactive Weather Map
Tropical Storm Tracking
New forecast layout! Learn more

10-Day Weather Forecast

Advertisements
Track Severe Weather on mobile